createdAt,value
2019-03-27T00:02:31.571Z,6.28
2019-03-27T00:07:26.179Z,6.33
2019-03-27T00:12:20.761Z,6.35
2019-03-27T00:17:15.369Z,6.36
2019-03-27T00:22:10.054Z,6.34
2019-03-27T00:27:04.656Z,6.31
2019-03-27T00:31:59.266Z,6.29
2019-03-27T00:36:53.854Z,6.26
2019-03-27T00:41:48.470Z,6.14
2019-03-27T00:46:43.065Z,6.03
2019-03-27T00:51:37.738Z,6.05
2019-03-27T00:56:32.319Z,6.11
2019-03-27T01:01:26.910Z,6.16
2019-03-27T01:06:21.570Z,6.21
2019-03-27T01:11:16.182Z,6.20
2019-03-27T01:16:10.912Z,6.19
2019-03-27T01:21:05.751Z,6.17
2019-03-27T01:26:00.352Z,6.10
2019-03-27T01:30:54.981Z,6.09
2019-03-27T01:35:49.587Z,6.05
2019-03-27T01:40:44.450Z,6.07
2019-03-27T01:45:52.207Z,5.94
2019-03-27T01:50:35.399Z,5.83
2019-03-27T01:55:30.014Z,5.74
2019-03-27T02:00:24.691Z,5.63
2019-03-27T02:05:19.465Z,5.51
2019-03-27T02:10:14.752Z,5.32
2019-03-27T02:15:10.870Z,5.21
2019-03-27T02:20:08.082Z,5.16
2019-03-27T02:25:02.683Z,5.07
2019-03-27T02:29:57.274Z,5.04
2019-03-27T02:34:51.891Z,4.89
2019-03-27T02:39:46.504Z,4.83
2019-03-27T02:44:41.109Z,4.78
2019-03-27T02:49:35.757Z,4.70
2019-03-27T02:54:30.336Z,4.73
2019-03-27T02:59:24.972Z,4.70
2019-03-27T03:04:19.709Z,4.61
2019-03-27T03:09:14.344Z,4.54
2019-03-27T03:14:08.974Z,4.52
2019-03-27T03:19:03.577Z,4.60
2019-03-27T03:23:58.178Z,4.60
2019-03-27T03:28:52.783Z,4.48
2019-03-27T03:33:47.469Z,4.49
2019-03-27T03:38:42.054Z,4.49
2019-03-27T03:43:36.656Z,4.50
2019-03-27T03:48:31.252Z,4.40
2019-03-27T03:53:28.927Z,4.38
2019-03-27T03:58:26.532Z,4.40
2019-03-27T04:03:24.661Z,4.43
2019-03-27T04:08:19.266Z,4.35
2019-03-27T04:13:13.872Z,4.26
2019-03-27T04:18:08.553Z,4.14
2019-03-27T04:23:03.154Z,4.09
2019-03-27T04:27:57.828Z,3.91
2019-03-27T04:32:52.432Z,3.80
2019-03-27T04:37:47.056Z,3.73
2019-03-27T04:42:41.702Z,3.63
2019-03-27T04:47:36.310Z,3.54
2019-03-27T04:52:30.922Z,3.51
2019-03-27T04:57:25.592Z,3.52
2019-03-27T05:02:20.277Z,3.50
2019-03-27T05:07:14.886Z,3.60
2019-03-27T05:12:09.464Z,3.63
2019-03-27T05:17:04.088Z,3.63
2019-03-27T05:21:58.682Z,3.54
2019-03-27T05:26:53.329Z,3.50
2019-03-27T05:31:47.918Z,3.51
2019-03-27T05:36:42.624Z,3.78
2019-03-27T05:41:37.228Z,3.94
2019-03-27T05:46:31.867Z,4.50
2019-03-27T05:51:26.466Z,4.87
2019-03-27T05:56:21.078Z,5.34
2019-03-27T06:01:15.658Z,5.96
2019-03-27T06:06:10.266Z,6.71
2019-03-27T06:11:04.846Z,7.54
2019-03-27T06:15:59.446Z,7.49
2019-03-27T06:20:54.023Z,8.15
2019-03-27T06:25:48.639Z,8.52
2019-03-27T06:30:43.297Z,8.50
2019-03-27T06:35:37.901Z,8.81
2019-03-27T06:40:32.531Z,9.11
2019-03-27T06:45:27.151Z,9.09
2019-03-27T06:50:22.625Z,8.78
2019-03-27T06:55:17.272Z,8.52
2019-03-27T07:00:12.869Z,7.00
2019-03-27T07:05:08.182Z,7.45
2019-03-27T07:10:04.208Z,7.31
2019-03-27T07:14:59.355Z,7.23
2019-03-27T07:19:54.204Z,6.85
2019-03-27T07:24:48.831Z,7.00
2019-03-27T07:29:44.034Z,6.97
2019-03-27T07:34:38.629Z,6.98
2019-03-27T07:39:33.677Z,7.26
2019-03-27T07:44:28.902Z,7.49
2019-03-27T07:49:23.538Z,7.28
2019-03-27T07:54:18.269Z,7.56
2019-03-27T07:59:13.050Z,7.60
2019-03-27T08:04:07.672Z,7.84
2019-03-27T08:09:02.261Z,7.99
2019-03-27T08:13:57.282Z,8.06
2019-03-27T08:19:06.842Z,7.94
2019-03-27T08:23:51.901Z,8.23
2019-03-27T08:28:46.488Z,7.90
2019-03-27T08:33:41.106Z,8.27
2019-03-27T08:38:36.999Z,9.65
2019-03-27T08:43:31.776Z,8.47
2019-03-27T08:48:26.404Z,8.28
2019-03-27T08:53:21.078Z,8.44
2019-03-27T08:58:15.726Z,8.44
2019-03-27T09:03:10.322Z,8.13
2019-03-27T09:08:05.125Z,8.57
2019-03-27T09:13:00.414Z,8.60
2019-03-27T09:17:56.715Z,8.84
2019-03-27T09:22:53.484Z,9.57
2019-03-27T09:27:49.878Z,9.51
2019-03-27T09:32:44.959Z,9.76
2019-03-27T09:37:39.638Z,10.02
2019-03-27T09:42:34.376Z,9.66
2019-03-27T09:47:28.967Z,10.06
2019-03-27T09:52:23.609Z,9.71
2019-03-27T09:57:18.193Z,9.58
2019-03-27T10:02:19.709Z,9.62
2019-03-27T10:07:14.631Z,10.38
2019-03-27T10:12:09.266Z,10.30
2019-03-27T10:17:04.445Z,10.38
2019-03-27T10:21:59.092Z,9.89
2019-03-27T10:26:53.709Z,9.58
2019-03-27T10:31:48.485Z,9.91
2019-03-27T10:36:43.341Z,10.33
2019-03-27T10:41:37.988Z,10.50
2019-03-27T10:46:32.756Z,10.62
2019-03-27T10:51:27.375Z,10.82
2019-03-27T10:56:22.007Z,10.49
2019-03-27T11:01:17.076Z,10.83
2019-03-27T11:06:11.706Z,10.72
2019-03-27T11:11:07.241Z,10.36
2019-03-27T11:16:02.826Z,10.14
2019-03-27T11:20:57.493Z,10.81
2019-03-27T11:25:52.450Z,10.76
2019-03-27T11:30:48.559Z,11.01
2019-03-27T11:35:43.333Z,10.58
2019-03-27T11:40:38.093Z,10.68
2019-03-27T11:45:32.804Z,10.85
2019-03-27T11:50:28.250Z,10.97
2019-03-27T11:55:22.846Z,10.88
2019-03-27T12:00:20.159Z,11.16
2019-03-27T12:05:14.891Z,11.28
2019-03-27T12:10:10.306Z,10.66
2019-03-27T12:15:09.052Z,11.23
2019-03-27T12:20:05.160Z,10.71
2019-03-27T12:24:59.846Z,10.65
2019-03-27T12:29:59.053Z,10.81
2019-03-27T12:34:53.710Z,10.64
2019-03-27T12:39:48.350Z,10.70
2019-03-27T12:44:42.936Z,10.93
2019-03-27T12:49:37.672Z,10.58
2019-03-27T12:54:32.315Z,10.77
2019-03-27T12:59:27.009Z,10.77
2019-03-27T13:04:21.902Z,10.72
2019-03-27T13:09:16.571Z,11.11
2019-03-27T13:14:11.172Z,10.85
2019-03-27T13:19:06.087Z,10.55
2019-03-27T13:24:00.703Z,10.72
2019-03-27T13:28:55.714Z,10.60
2019-03-27T13:33:50.693Z,10.60
2019-03-27T13:38:45.477Z,10.46
2019-03-27T13:43:40.499Z,10.61
2019-03-27T13:48:35.250Z,10.88
2019-03-27T13:53:30.128Z,10.84
2019-03-27T13:58:24.770Z,10.90
2019-03-27T14:03:20.896Z,10.95
2019-03-27T14:08:15.500Z,10.90
2019-03-27T14:13:10.119Z,10.58
2019-03-27T14:18:04.910Z,10.82
2019-03-27T14:22:59.512Z,10.75
2019-03-27T14:27:54.598Z,10.72
2019-03-27T14:32:49.221Z,10.71
2019-03-27T14:37:43.924Z,10.85
2019-03-27T14:42:39.504Z,10.81
2019-03-27T14:47:34.237Z,10.87
2019-03-27T14:52:28.885Z,10.91
2019-03-27T14:57:23.507Z,10.87
2019-03-27T15:02:18.110Z,11.06
2019-03-27T15:07:12.691Z,11.10
2019-03-27T15:12:07.288Z,11.07
2019-03-27T15:17:02.770Z,10.86
2019-03-27T15:21:57.352Z,11.10
2019-03-27T15:26:51.962Z,10.88
2019-03-27T15:31:46.574Z,11.11
2019-03-27T15:36:41.207Z,11.16
2019-03-27T15:41:35.838Z,10.90
2019-03-27T15:46:30.774Z,10.77
2019-03-27T15:51:25.434Z,10.75
2019-03-27T15:56:20.383Z,10.78
2019-03-27T16:01:15.185Z,10.75
2019-03-27T16:06:10.115Z,10.83
2019-03-27T16:11:04.820Z,10.84
2019-03-27T16:15:59.471Z,10.74
2019-03-27T16:20:54.394Z,10.82
2019-03-27T16:25:48.966Z,10.55
2019-03-27T16:30:43.581Z,10.35
2019-03-27T16:35:38.412Z,10.51
2019-03-27T16:40:46.854Z,10.43
2019-03-27T16:45:41.680Z,10.35
2019-03-27T16:50:36.285Z,10.31
2019-03-27T16:55:30.909Z,10.36
2019-03-27T17:00:25.609Z,10.39
2019-03-27T17:05:20.301Z,10.29
2019-03-27T17:10:15.288Z,10.12
2019-03-27T17:15:10.149Z,10.13
2019-03-27T17:20:10.471Z,10.10
2019-03-27T17:25:07.964Z,10.00
2019-03-27T17:30:02.638Z,9.79
2019-03-27T17:34:57.231Z,9.71
2019-03-27T17:39:51.840Z,9.62
2019-03-27T17:44:46.439Z,9.33
2019-03-27T17:49:41.035Z,9.31
2019-03-27T17:54:35.629Z,9.22
2019-03-27T17:59:30.241Z,9.07
2019-03-27T18:04:24.900Z,8.93
2019-03-27T18:09:19.508Z,8.80
2019-03-27T18:14:14.094Z,8.79
2019-03-27T18:19:08.754Z,8.77
2019-03-27T18:24:03.379Z,8.68
2019-03-27T18:28:58.000Z,8.59
2019-03-27T18:33:52.617Z,8.47
2019-03-27T18:38:47.227Z,8.46
2019-03-27T18:43:41.835Z,8.53
2019-03-27T18:48:36.429Z,8.51
2019-03-27T18:53:31.062Z,8.51
2019-03-27T18:58:25.658Z,8.41
2019-03-27T19:03:20.405Z,8.20
2019-03-27T19:08:15.153Z,8.10
2019-03-27T19:13:09.824Z,8.06
2019-03-27T19:18:04.644Z,8.15
2019-03-27T19:22:59.317Z,7.99
2019-03-27T19:27:53.962Z,7.83
2019-03-27T19:32:48.640Z,7.80
2019-03-27T19:37:43.375Z,7.50
2019-03-27T19:42:38.024Z,7.44
2019-03-27T19:47:33.629Z,7.41
2019-03-27T19:52:28.347Z,7.29
2019-03-27T19:57:23.023Z,7.27
2019-03-27T20:02:17.676Z,7.28
2019-03-27T20:07:12.359Z,7.21
2019-03-27T20:12:07.038Z,7.14
2019-03-27T20:17:01.748Z,7.13
2019-03-27T20:21:56.464Z,7.43
2019-03-27T20:26:51.060Z,7.21
2019-03-27T20:31:45.732Z,7.26
2019-03-27T20:36:40.409Z,7.46
2019-03-27T20:41:35.095Z,7.70
2019-03-27T20:46:29.765Z,7.56
2019-03-27T20:51:24.407Z,7.51
2019-03-27T20:56:19.036Z,7.43
2019-03-27T21:01:13.818Z,7.34
2019-03-27T21:06:08.489Z,7.31
2019-03-27T21:11:03.458Z,7.21
2019-03-27T21:15:58.051Z,7.16
2019-03-27T21:20:52.708Z,7.06
2019-03-27T21:25:47.306Z,7.03
2019-03-27T21:30:41.898Z,6.94
2019-03-27T21:35:36.491Z,6.98
2019-03-27T21:40:31.079Z,6.92
2019-03-27T21:45:25.673Z,6.93
2019-03-27T21:50:20.280Z,6.86
2019-03-27T21:55:22.549Z,6.79
2019-03-27T22:00:12.188Z,6.67
2019-03-27T22:05:08.490Z,6.74
2019-03-27T22:10:03.583Z,6.68
2019-03-27T22:14:58.171Z,6.65
2019-03-27T22:19:52.819Z,6.58
2019-03-27T22:24:47.511Z,6.70
2019-03-27T22:29:42.112Z,6.69
2019-03-27T22:34:36.729Z,6.63
2019-03-27T22:39:31.299Z,6.54
2019-03-27T22:44:25.901Z,6.55
2019-03-27T22:49:20.493Z,6.61
2019-03-27T22:54:15.162Z,6.62
2019-03-27T22:59:09.743Z,6.62
2019-03-27T23:04:04.359Z,6.58
2019-03-27T23:08:58.960Z,6.60
2019-03-27T23:13:53.571Z,6.53
2019-03-27T23:18:53.024Z,6.55
2019-03-27T23:23:52.086Z,6.48
2019-03-27T23:28:47.184Z,6.47
2019-03-27T23:33:41.852Z,6.38
2019-03-27T23:38:36.594Z,6.24
2019-03-27T23:43:32.318Z,6.15
2019-03-27T23:48:26.923Z,6.07
2019-03-27T23:53:21.926Z,5.94
2019-03-27T23:58:16.499Z,5.73
